McQueeney, TX

6:16 PM CDT on August 24, 2016 (GMT -0500)
Las Brisas | | Change Station

Elev 568 ft 29.62 °N, 98.05 °W | Updated 9 seconds ago

Partly Cloudy
Partly Cloudy
90.9 °F
Feels Like 102 °F
N
0.0
Wind Variable Wind from WSW
Gusts 1.0 mph

Today
High -- | Low -- °F
--% Chance of Precip.
Yesterday
High -- | Low -- °F
Precip. -- in
Pressure 29.99 in
Visibility 10.0 miles
Clouds Few 5500 ft
Heat Index 102 °F
Dew Point 76 °F
Humidity 61%
Rainfall 0.00 in
Snow Depth Not available.
7:05 AM 8:02 PM
Waning Gibbous, 52% visible
METAR KBAZ 242251Z 17010KT 10SM FEW055 33/20 A3002 RMK AO2 SLP155 T03330200
Pressure 29.99 in
Visibility 10.0 miles
Clouds Few 5500 ft
Heat Index 102 °F
Dew Point 76 °F
Humidity 61%
Rainfall 0.00 in
Snow Depth Not available.
7:05 AM 8:02 PM
Waning Gibbous, 52% visible
METAR KBAZ 242251Z 17010KT 10SM FEW055 33/20 A3002 RMK AO2 SLP155 T03330200

10-Day Weather Forecast

Almanac

Astronomy

Aug. 24, 2016 Rise Set
Actual Time
Civil Twilight
Nautical Twilight
Astronomical Twilight
Moon
Length of Visible Light
Length of Day
Tomorrow will be .
, % of the Moon is Illuminated

Today's Extremes

State Highs State Lows

Community

WunderPhotos

Upload Photos

1,934,731 photos uploaded!

WunderBlog® & News

Nearby

Air Quality

  Air Quality AQ Index Pollutant
Not available.

Snow Depth

Station Depth Elevation

Earthquake Activity

City Distance Mag. Time & Date
Minimum magnitude displayed is 2.5.

Coastal Water Temperatures

Place Temperature

Stations

Nearby Weather Stations

Station Location Temp. Windchill Dew Point Humidity Wind Precip. Elev Updated Type
                   

Watches & Warnings

There are currently no watches in effect.